HAE weather

Public forecast

Using degrees Fahrenheit for public forecast. Weather courtesy of forecast.io.

Current aviation weather report (METAR) for Hannibal Regional Airport

Retrieved 2020/08/12 00:35 UTC (7 minutes ago):

KHAE 120035Z AUTO 00000KT 7SM CLR 26/20 A3000 RMK AO2

Closest aviation forecast (TAF) to Hannibal Regional Airport

Closest forecast is Quincy Regional Baldwin Field, 17.4 nm (32.3 km) NE. Retrieved 2020-08-12 00:22 UTC (20 minutes ago):

TAF KUIN 112320Z 1200/1224 08005KT P6SM FEW025 FM120800 07005KT 5SM BR BKN025 FM121400 10008KT P6SM SCT045